Time;durP1;ratioP1;P1;durP2;ratioP2;P2;SDS_P1;SDS_P2;PMS_P1;PMS_P2;Temp;Humidity;BMP_temperature;BMP_pressure;BME280_temperature;BME280_humidity;BME280_pressure;Samples;Min_cycle;Max_cycle;Signal;HPM_P1;HPM_P2
2021/06/16 00:01:36;;;;;;;7.93;1.75;;;8.50;99.90;;;;;;5025327;28;20692;-75
2021/06/16 00:04:04;;;;;;;10.38;2.03;;;8.40;99.90;;;;;;5041879;28;20200;-75
2021/06/16 00:06:30;;;;;;;4.78;2.30;;;8.40;99.90;;;;;;5041882;28;20217;-75
2021/06/16 00:08:56;;;;;;;9.98;2.03;;;8.40;99.90;;;;;;5025433;28;20659;-75
2021/06/16 00:11:22;;;;;;;7.47;1.98;;;8.40;99.90;;;;;;5040116;28;20270;-75
2021/06/16 00:13:49;;;;;;;10.00;2.08;;;8.40;99.90;;;;;;5036902;28;20201;-75
2021/06/16 00:16:14;;;;;;;7.60;2.17;;;8.30;99.90;;;;;;5042938;28;20280;-75
2021/06/16 00:18:40;;;;;;;9.65;1.70;;;8.20;99.90;;;;;;5043508;28;20284;-76
2021/06/16 00:21:06;;;;;;;5.60;1.77;;;8.20;99.90;;;;;;5024128;28;20259;-76
2021/06/16 00:23:32;;;;;;;7.07;1.95;;;8.20;99.90;;;;;;5038312;28;20194;-77
2021/06/16 00:25:58;;;;;;;5.57;1.73;;;8.20;99.90;;;;;;5037433;28;20221;-76
2021/06/16 00:28:24;;;;;;;7.18;1.67;;;8.20;99.90;;;;;;5039321;28;20245;-75
2021/06/16 00:30:49;;;;;;;6.18;1.70;;;8.10;99.90;;;;;;5023042;28;20263;-75
2021/06/16 00:33:15;;;;;;;16.92;2.20;;;8.10;99.90;;;;;;5040426;28;20232;-76
2021/06/16 00:35:41;;;;;;;5.75;1.80;;;8.10;99.90;;;;;;5042670;28;20557;-76
2021/06/16 00:38:06;;;;;;;8.85;1.95;;;8.10;99.90;;;;;;5029751;28;20190;-75
2021/06/16 00:40:32;;;;;;;4.95;1.73;;;8.10;99.90;;;;;;5043895;28;20583;-75
2021/06/16 00:43:00;;;;;;;6.03;1.90;;;8.00;99.90;;;;;;5043600;28;20197;-75
2021/06/16 00:45:26;;;;;;;13.73;2.10;;;8.00;99.90;;;;;;5042109;28;20305;-75
2021/06/16 00:47:56;;;;;;;9.40;2.15;;;7.90;99.90;;;;;;5045468;28;20202;-75
2021/06/16 00:50:25;;;;;;;10.60;1.95;;;7.90;99.90;;;;;;5043347;28;20205;-75
2021/06/16 00:52:51;;;;;;;12.45;1.83;;;7.90;99.90;;;;;;5040217;28;20623;-74
2021/06/16 00:55:16;;;;;;;8.07;2.10;;;7.90;99.90;;;;;;5040665;28;20292;-74
2021/06/16 00:57:42;;;;;;;9.20;1.67;;;7.90;99.90;;;;;;5028993;28;20193;-74
2021/06/16 01:00:09;;;;;;;8.80;1.92;;;7.90;99.90;;;;;;5040817;28;20208;-73
2021/06/16 01:02:56;;;;;;;13.90;1.88;;;7.80;99.90;;;;;;5041647;28;20273;-74
2021/06/16 01:05:26;;;;;;;15.02;2.63;;;7.80;99.90;;;;;;5039452;28;20227;-74
2021/06/16 01:07:58;;;;;;;12.88;2.25;;;7.80;99.90;;;;;;5045608;28;20203;-74
2021/06/16 01:10:29;;;;;;;7.43;2.10;;;7.80;99.90;;;;;;5026016;28;20372;-73
2021/06/16 01:13:05;;;;;;;7.40;2.10;;;7.70;99.90;;;;;;5041398;28;20205;-73
2021/06/16 01:15:49;;;;;;;10.52;2.25;;;7.70;99.90;;;;;;5041705;28;20189;-74
2021/06/16 01:18:19;;;;;;;3.30;1.77;;;7.70;99.90;;;;;;5027715;28;20197;-74
2021/06/16 01:20:49;;;;;;;15.18;2.38;;;7.70;99.90;;;;;;5043614;28;20223;-73
2021/06/16 01:23:27;;;;;;;13.63;1.90;;;7.70;99.90;;;;;;5026252;28;20911;-74
2021/06/16 01:26:10;;;;;;;10.55;2.13;;;7.60;99.90;;;;;;5024382;28;20195;-74
2021/06/16 01:28:44;;;;;;;4.90;2.00;;;7.60;99.90;;;;;;5024571;28;20544;-74
2021/06/16 01:31:13;;;;;;;8.88;2.28;;;7.70;99.90;;;;;;5042779;28;20204;-74
2021/06/16 01:33:39;;;;;;;9.73;1.80;;;7.70;99.90;;;;;;5024683;28;20225;-73
2021/06/16 01:36:07;;;;;;;5.68;1.85;;;7.60;99.90;;;;;;5021285;28;20264;-74
2021/06/16 01:38:33;;;;;;;3.55;1.70;;;7.60;99.90;;;;;;5043291;28;20193;-74
2021/06/16 01:41:01;;;;;;;8.63;1.90;;;7.60;99.90;;;;;;5025402;28;20197;-74
2021/06/16 01:43:27;;;;;;;10.23;1.70;;;7.60;99.90;;;;;;5040933;28;20205;-74
2021/06/16 01:45:57;;;;;;;4.20;1.50;;;7.60;99.90;;;;;;5039286;28;20285;-73
2021/06/16 01:48:24;;;;;;;11.05;2.40;;;7.60;99.90;;;;;;5043390;28;20197;-74
2021/06/16 01:50:52;;;;;;;11.45;2.10;;;7.70;99.90;;;;;;5043518;28;20266;-74
2021/06/16 01:53:20;;;;;;;6.18;1.92;;;7.60;99.90;;;;;;5027642;28;20201;-74
2021/06/16 01:55:50;;;;;;;10.10;2.58;;;7.60;99.90;;;;;;5040344;28;20320;-74
2021/06/16 01:58:20;;;;;;;11.15;2.15;;;7.60;99.90;;;;;;5044656;28;20734;-74
2021/06/16 02:00:47;;;;;;;9.82;2.33;;;7.70;99.90;;;;;;5039540;28;20202;-74
2021/06/16 02:03:13;;;;;;;5.63;2.15;;;7.60;99.90;;;;;;5042026;28;20769;-74
2021/06/16 02:05:39;;;;;;;9.98;2.60;;;7.60;99.90;;;;;;5042646;28;20244;-76
2021/06/16 02:08:09;;;;;;;7.40;1.85;;;7.60;99.90;;;;;;5044524;28;20201;-77
2021/06/16 02:10:48;;;;;;;5.40;2.13;;;7.60;99.90;;;;;;5040967;28;20676;-77
2021/06/16 02:13:20;;;;;;;14.00;2.53;;;7.60;99.90;;;;;;5043016;28;20711;-74
2021/06/16 02:16:02;;;;;;;11.73;2.60;;;7.60;99.90;;;;;;5017665;28;20216;-73
2021/06/16 02:18:47;;;;;;;4.63;1.90;;;7.60;99.90;;;;;;5026458;28;20680;-74
2021/06/16 02:21:14;;;;;;;9.85;1.98;;;7.60;99.90;;;;;;5024676;28;20197;-74
2021/06/16 02:23:42;;;;;;;12.20;2.03;;;7.60;99.90;;;;;;5040104;28;20198;-73
2021/06/16 02:26:10;;;;;;;7.43;2.15;;;7.60;99.90;;;;;;5039981;28;20237;-73
2021/06/16 02:28:36;;;;;;;3.10;1.60;;;7.50;99.90;;;;;;5042801;28;20198;-76
2021/06/16 02:31:03;;;;;;;12.07;2.22;;;7.50;99.90;;;;;;5041047;28;20220;-76
2021/06/16 02:33:29;;;;;;;6.95;1.90;;;7.60;99.90;;;;;;5026477;28;20256;-76
2021/06/16 02:35:55;;;;;;;6.03;1.92;;;7.70;99.90;;;;;;5042847;28;20193;-74
2021/06/16 02:38:28;;;;;;;6.53;2.13;;;7.80;99.90;;;;;;5044258;28;20221;-76
2021/06/16 02:40:55;;;;;;;9.02;2.08;;;7.90;99.90;;;;;;5023960;28;20565;-76
2021/06/16 02:43:22;;;;;;;10.10;1.90;;;8.00;99.90;;;;;;5041695;28;20224;-74
2021/06/16 02:45:49;;;;;;;8.70;2.25;;;8.20;99.90;;;;;;5040823;28;20205;-74
2021/06/16 02:48:17;;;;;;;11.35;2.33;;;8.30;99.90;;;;;;5040234;28;20197;-73
2021/06/16 02:50:45;;;;;;;8.57;2.47;;;8.50;99.90;;;;;;5023798;28;20213;-73
2021/06/16 02:53:20;;;;;;;11.13;2.47;;;8.70;99.90;;;;;;5039874;28;20205;-73
2021/06/16 02:55:49;;;;;;;12.85;2.88;;;8.80;99.90;;;;;;5043244;28;20784;-73
2021/06/16 02:58:19;;;;;;;11.27;2.90;;;9.00;99.90;;;;;;5042833;28;20531;-73
2021/06/16 03:00:51;;;;;;;9.07;3.20;;;9.20;99.90;;;;;;5023282;28;20197;-73
2021/06/16 03:03:20;;;;;;;14.80;2.75;;;9.20;99.90;;;;;;5042276;28;20691;-74
2021/06/16 03:05:48;;;;;;;24.58;4.03;;;9.30;99.90;;;;;;5041384;28;20232;-73
2021/06/16 03:08:14;;;;;;;20.30;3.92;;;9.40;99.90;;;;;;5026624;28;20352;-73
2021/06/16 03:10:41;;;;;;;21.25;4.10;;;9.60;99.90;;;;;;5041355;28;20655;-73
2021/06/16 03:13:08;;;;;;;21.45;3.95;;;9.70;99.90;;;;;;5043330;28;20647;-74
2021/06/16 03:15:35;;;;;;;15.35;3.97;;;9.70;99.90;;;;;;5041447;28;20193;-74
2021/06/16 03:18:01;;;;;;;16.90;3.30;;;9.70;99.90;;;;;;5023899;28;20194;-73
2021/06/16 03:20:30;;;;;;;15.25;3.95;;;9.80;99.90;;;;;;5037450;28;20311;-74
2021/06/16 03:22:57;;;;;;;23.33;4.38;;;9.90;99.90;;;;;;5040404;28;20277;-73
2021/06/16 03:25:24;;;;;;;15.32;3.50;;;9.90;99.90;;;;;;5042093;28;20208;-73
2021/06/16 03:27:52;;;;;;;20.13;3.72;;;10.00;99.90;;;;;;5040160;28;20762;-74
2021/06/16 03:30:22;;;;;;;17.92;3.75;;;10.10;99.90;;;;;;5038467;28;20205;-74
2021/06/16 03:32:54;;;;;;;13.50;3.67;;;10.10;99.90;;;;;;5039663;28;20188;-73
2021/06/16 03:35:20;;;;;;;19.92;3.38;;;10.20;99.90;;;;;;5040239;28;20202;-73
2021/06/16 03:37:47;;;;;;;17.30;3.40;;;10.20;99.90;;;;;;5043384;28;20197;-74
2021/06/16 03:40:15;;;;;;;19.23;4.25;;;10.30;99.90;;;;;;5042274;28;20232;-73
2021/06/16 03:42:43;;;;;;;17.35;4.25;;;10.30;99.90;;;;;;5040211;28;20275;-73
2021/06/16 03:45:10;;;;;;;16.75;4.28;;;10.40;99.90;;;;;;5019616;28;20604;-73
2021/06/16 03:47:40;;;;;;;18.95;4.25;;;10.50;99.90;;;;;;5040181;28;20727;-76
2021/06/16 03:50:08;;;;;;;17.27;3.88;;;10.50;99.90;;;;;;5021790;28;20624;-74
2021/06/16 03:52:36;;;;;;;19.98;4.18;;;10.60;99.90;;;;;;5041179;28;20246;-73
2021/06/16 03:55:04;;;;;;;12.32;4.15;;;10.70;99.90;;;;;;5041171;28;20185;-73
2021/06/16 03:57:31;;;;;;;20.25;4.43;;;10.80;99.90;;;;;;5022775;28;20597;-73
2021/06/16 03:59:57;;;;;;;13.07;4.28;;;10.90;99.90;;;;;;5039597;28;20393;-74
2021/06/16 04:02:23;;;;;;;21.80;4.65;;;11.00;99.90;;;;;;5017107;28;20198;-73
2021/06/16 04:04:50;;;;;;;22.05;4.68;;;11.10;99.90;;;;;;5039759;28;20197;-73
2021/06/16 04:07:18;;;;;;;15.25;4.40;;;11.10;99.90;;;;;;5020223;28;20239;-73
2021/06/16 04:09:52;;;;;;;15.43;4.55;;;11.10;99.90;;;;;;5042166;28;20232;-73
2021/06/16 04:12:19;;;;;;;18.60;5.55;;;11.20;99.90;;;;;;5043520;28;20714;-73
2021/06/16 04:14:46;;;;;;;16.92;4.78;;;11.30;99.90;;;;;;5025189;28;20194;-74
2021/06/16 04:17:12;;;;;;;10.38;3.63;;;11.40;99.90;;;;;;5026677;28;20235;-73
2021/06/16 04:19:38;;;;;;;12.38;3.88;;;11.70;99.90;;;;;;5044587;28;20202;-73
2021/06/16 04:22:04;;;;;;;15.75;3.60;;;12.30;99.90;;;;;;5043471;28;20236;-73
2021/06/16 04:24:30;;;;;;;15.68;4.40;;;12.80;99.90;;;;;;5024042;28;20201;-73
2021/06/16 04:26:56;;;;;;;12.40;3.35;;;13.20;99.90;;;;;;5025494;28;20208;-73
2021/06/16 04:29:21;;;;;;;13.27;3.80;;;13.40;99.90;;;;;;5029022;28;20205;-73
2021/06/16 04:31:47;;;;;;;20.38;4.07;;;13.70;99.90;;;;;;5026408;28;20300;-74
2021/06/16 04:34:13;;;;;;;12.48;3.95;;;13.70;99.90;;;;;;5043639;28;20190;-73
2021/06/16 04:36:39;;;;;;;16.42;3.88;;;13.70;99.90;;;;;;5044700;28;20621;-73
2021/06/16 04:39:05;;;;;;;15.95;3.70;;;13.70;99.90;;;;;;5043757;28;20205;-73
2021/06/16 04:41:32;;;;;;;18.90;4.70;;;13.50;99.90;;;;;;5042122;28;20356;-73
2021/06/16 04:43:57;;;;;;;20.17;4.78;;;13.40;99.90;;;;;;5024708;28;20201;-73
2021/06/16 04:46:26;;;;;;;16.05;4.45;;;13.40;99.90;;;;;;5043883;28;20243;-72
2021/06/16 04:48:52;;;;;;;24.10;5.00;;;13.40;99.90;;;;;;5042845;28;20628;-72
2021/06/16 04:51:18;;;;;;;19.73;4.40;;;13.50;99.90;;;;;;5043997;28;20228;-73
2021/06/16 04:53:44;;;;;;;17.27;4.50;;;13.50;99.90;;;;;;5045187;28;20632;-73
2021/06/16 04:56:09;;;;;;;15.02;4.22;;;13.60;99.90;;;;;;5021857;28;20636;-73
2021/06/16 04:58:36;;;;;;;14.88;5.00;;;13.70;99.90;;;;;;5039913;28;20209;-74
2021/06/16 05:01:02;;;;;;;16.42;4.13;;;13.80;99.90;;;;;;5042052;28;20668;-73
2021/06/16 05:03:28;;;;;;;12.80;4.38;;;13.80;99.90;;;;;;5044088;28;20197;-73
2021/06/16 05:05:54;;;;;;;14.60;4.57;;;13.90;99.90;;;;;;5043000;28;20279;-76
2021/06/16 05:08:22;;;;;;;15.05;4.70;;;14.00;99.90;;;;;;5043808;28;20197;-73
2021/06/16 05:10:48;;;;;;;22.73;4.80;;;14.10;99.90;;;;;;5025343;28;20279;-73
2021/06/16 05:13:21;;;;;;;17.63;4.57;;;14.20;99.90;;;;;;5026872;28;20197;-73
2021/06/16 05:15:47;;;;;;;17.75;5.07;;;14.30;99.90;;;;;;5040079;28;20273;-73
2021/06/16 05:18:12;;;;;;;13.57;4.63;;;14.30;99.90;;;;;;5044680;28;20660;-73
2021/06/16 05:20:38;;;;;;;15.35;4.22;;;14.40;99.90;;;;;;5043710;28;20208;-73
2021/06/16 05:23:04;;;;;;;18.55;5.00;;;14.20;99.90;;;;;;5043138;28;20229;-73
2021/06/16 05:25:30;;;;;;;17.55;5.43;;;14.10;99.90;;;;;;5043805;28;20198;-73
2021/06/16 05:27:55;;;;;;;11.85;4.88;;;14.20;99.90;;;;;;5043616;28;20204;-73
2021/06/16 05:30:21;;;;;;;17.95;5.22;;;14.00;99.90;;;;;;5038036;28;20210;-73
2021/06/16 05:32:47;;;;;;;21.45;5.35;;;13.90;99.90;;;;;;5039637;28;20201;-73
2021/06/16 05:35:13;;;;;;;20.08;5.35;;;13.80;99.90;;;;;;5023357;28;20271;-73
2021/06/16 05:37:39;;;;;;;17.98;5.25;;;13.80;99.90;;;;;;5025740;28;20197;-73
2021/06/16 05:40:06;;;;;;;18.25;5.75;;;13.80;99.90;;;;;;5023029;28;20194;-73
2021/06/16 05:42:32;;;;;;;19.38;5.32;;;13.70;99.90;;;;;;5043220;28;20667;-73
2021/06/16 05:44:57;;;;;;;21.00;5.45;;;13.90;99.90;;;;;;5020883;28;20198;-73
2021/06/16 05:47:24;;;;;;;16.52;5.43;;;14.00;99.90;;;;;;5045679;28;20212;-72
2021/06/16 05:49:49;;;;;;;14.15;5.40;;;14.10;99.90;;;;;;5043058;28;20205;-73
2021/06/16 05:52:15;;;;;;;19.25;5.65;;;14.30;99.90;;;;;;5045911;28;20285;-73
2021/06/16 05:54:41;;;;;;;13.73;5.28;;;14.20;99.90;;;;;;5022083;28;20228;-73
2021/06/16 05:57:07;;;;;;;19.90;5.28;;;14.30;99.90;;;;;;5044345;28;20259;-73
2021/06/16 05:59:33;;;;;;;14.65;4.68;;;14.40;99.90;;;;;;5038328;28;20289;-73
2021/06/16 06:02:00;;;;;;;25.50;5.38;;;14.40;99.90;;;;;;5023120;28;20224;-73
2021/06/16 06:04:26;;;;;;;13.38;5.10;;;14.50;99.90;;;;;;5044047;28;20664;-73
2021/06/16 06:06:51;;;;;;;16.58;4.72;;;14.70;99.90;;;;;;5036061;28;20296;-73
2021/06/16 06:09:17;;;;;;;18.38;5.45;;;14.80;99.90;;;;;;5042385;28;20288;-73
2021/06/16 06:11:43;;;;;;;15.00;5.05;;;14.90;99.90;;;;;;5043188;28;20661;-74
2021/06/16 06:14:09;;;;;;;19.67;5.20;;;14.90;99.90;;;;;;5044763;28;20663;-74
2021/06/16 06:16:34;;;;;;;24.73;5.85;;;14.90;99.90;;;;;;5026712;28;20243;-74
2021/06/16 06:19:01;;;;;;;17.48;5.30;;;14.90;99.90;;;;;;5040135;28;20278;-74
2021/06/16 06:21:30;;;;;;;22.80;5.10;;;14.80;99.90;;;;;;5045356;28;20209;-74
2021/06/16 06:23:57;;;;;;;19.05;5.60;;;14.80;99.90;;;;;;5044273;28;20219;-74
2021/06/16 06:26:23;;;;;;;20.45;5.15;;;14.70;99.90;;;;;;5043932;28;20208;-74
2021/06/16 06:28:48;;;;;;;22.13;6.05;;;14.80;99.90;;;;;;5046090;28;20197;-74
2021/06/16 06:31:14;;;;;;;11.88;4.97;;;14.90;99.90;;;;;;5039199;28;20300;-74
2021/06/16 06:33:39;;;;;;;14.60;4.53;;;15.20;99.90;;;;;;5041378;28;20206;-74
2021/06/16 06:36:05;;;;;;;12.95;4.80;;;15.30;99.90;;;;;;5037238;28;20209;-74
2021/06/16 06:38:31;;;;;;;13.32;4.85;;;15.50;99.90;;;;;;5019860;28;20219;-74
2021/06/16 06:40:56;;;;;;;13.18;4.47;;;15.50;99.90;;;;;;5025260;28;20201;-77
2021/06/16 06:43:22;;;;;;;17.90;4.90;;;15.70;99.90;;;;;;5040799;28;20995;-74
2021/06/16 06:45:48;;;;;;;17.10;4.78;;;16.40;99.90;;;;;;5024751;28;20197;-74
2021/06/16 06:48:13;;;;;;;11.02;4.90;;;17.00;99.90;;;;;;5024667;28;21379;-74
2021/06/16 06:50:39;;;;;;;11.00;4.03;;;17.30;99.90;;;;;;5024533;28;20405;-74
2021/06/16 06:53:05;;;;;;;14.60;4.63;;;17.60;99.90;;;;;;5045068;28;20228;-74
2021/06/16 06:55:31;;;;;;;12.35;4.18;;;17.80;99.90;;;;;;5042238;28;20193;-74
2021/06/16 06:57:56;;;;;;;13.45;4.80;;;17.70;99.90;;;;;;5042867;28;20624;-74
2021/06/16 07:00:22;;;;;;;10.63;4.50;;;17.80;99.90;;;;;;5042119;28;20280;-74
2021/06/16 07:02:48;;;;;;;13.43;4.22;;;18.10;99.90;;;;;;5042416;28;20527;-74
2021/06/16 07:05:15;;;;;;;12.20;4.28;;;18.20;99.90;;;;;;5017215;28;20661;-74
2021/06/16 07:07:41;;;;;;;17.75;4.20;;;18.40;99.90;;;;;;5035629;28;20677;-74
2021/06/16 07:10:08;;;;;;;16.05;4.65;;;18.00;99.90;;;;;;5034819;28;20294;-75
2021/06/16 07:12:34;;;;;;;11.10;4.05;;;17.70;99.90;;;;;;5031410;28;20201;-74
2021/06/16 07:15:00;;;;;;;12.23;4.32;;;17.20;99.90;;;;;;5036315;28;20202;-75
2021/06/16 07:17:26;;;;;;;10.38;4.07;;;17.50;99.90;;;;;;5036565;28;20193;-74
2021/06/16 07:19:51;;;;;;;15.50;4.68;;;17.50;99.90;;;;;;5034496;28;20231;-75
2021/06/16 07:22:17;;;;;;;13.00;4.45;;;17.70;99.90;;;;;;5020425;28;20329;-74
2021/06/16 07:24:43;;;;;;;15.43;4.38;;;18.30;99.90;;;;;;5036817;28;20201;-75
2021/06/16 07:27:10;;;;;;;9.70;3.90;;;18.30;99.90;;;;;;5033884;28;20213;-75
2021/06/16 07:29:36;;;;;;;12.18;4.45;;;18.30;99.90;;;;;;5034612;28;20193;-74
2021/06/16 07:32:02;;;;;;;12.20;4.03;;;18.20;99.90;;;;;;5033341;28;20197;-74
2021/06/16 07:34:28;;;;;;;13.18;4.70;;;18.50;99.90;;;;;;5034790;28;20333;-74
2021/06/16 07:36:54;;;;;;;12.32;4.03;;;18.60;99.90;;;;;;5031517;28;20706;-74
2021/06/16 07:39:20;;;;;;;13.02;4.35;;;18.80;99.90;;;;;;5036417;28;20254;-74
2021/06/16 07:41:46;;;;;;;12.48;4.28;;;18.40;99.90;;;;;;5034847;28;20620;-74
2021/06/16 07:44:12;;;;;;;11.00;4.50;;;18.60;99.90;;;;;;5017906;28;20637;-74
2021/06/16 07:46:38;;;;;;;14.75;4.20;;;18.50;99.90;;;;;;5031411;28;20232;-74
2021/06/16 07:49:04;;;;;;;9.45;3.75;;;17.90;99.90;;;;;;5033141;28;20224;-74
2021/06/16 07:51:30;;;;;;;13.32;3.95;;;18.10;99.90;;;;;;5038472;28;20209;-74
2021/06/16 07:53:55;;;;;;;10.98;3.70;;;18.30;99.90;;;;;;5038032;28;20637;-75
2021/06/16 07:56:21;;;;;;;11.52;3.97;;;18.40;99.90;;;;;;5020495;28;20197;-75
2021/06/16 07:58:47;;;;;;;13.68;4.50;;;18.20;99.90;;;;;;5032506;28;20266;-75
2021/06/16 08:01:12;;;;;;;18.83;4.40;;;18.30;99.90;;;;;;5038997;28;20623;-74
2021/06/16 08:03:38;;;;;;;15.43;4.05;;;18.50;99.90;;;;;;5031390;28;20292;-73
2021/06/16 08:06:04;;;;;;;12.93;3.63;;;18.50;99.90;;;;;;5016007;28;20230;-75
2021/06/16 08:08:30;;;;;;;12.23;4.13;;;18.40;99.90;;;;;;5022780;28;20208;-75
2021/06/16 08:10:56;;;;;;;12.93;4.43;;;18.40;99.90;;;;;;5042698;28;20633;-75
2021/06/16 08:13:22;;;;;;;10.02;3.55;;;18.30;99.90;;;;;;5042591;28;20197;-75
2021/06/16 08:15:48;;;;;;;9.30;3.75;;;18.40;99.90;;;;;;5019762;28;20197;-75
2021/06/16 08:18:13;;;;;;;9.60;3.90;;;18.40;99.90;;;;;;5040437;28;20202;-75
2021/06/16 08:20:39;;;;;;;15.23;4.30;;;18.40;99.90;;;;;;5037149;28;20204;-76
2021/06/16 08:23:07;;;;;;;11.98;3.85;;;18.30;99.90;;;;;;5017432;28;21177;-76
2021/06/16 08:25:35;;;;;;;17.05;5.28;;;18.50;99.90;;;;;;5037165;28;20200;-76
2021/06/16 08:28:02;;;;;;;10.73;3.80;;;18.70;99.90;;;;;;5021856;28;20663;-75
2021/06/16 08:30:27;;;;;;;11.25;3.95;;;18.60;99.90;;;;;;5035332;28;20703;-75
2021/06/16 08:32:53;;;;;;;15.23;4.10;;;18.60;99.90;;;;;;5016771;28;20238;-76
2021/06/16 08:35:19;;;;;;;18.25;4.18;;;19.20;99.90;;;;;;5036533;28;20297;-75
2021/06/16 08:37:46;;;;;;;12.40;4.13;;;19.50;99.90;;;;;;5039696;28;20198;-75
2021/06/16 08:40:14;;;;;;;9.02;3.97;;;19.60;99.90;;;;;;5038971;28;20258;-75
2021/06/16 08:42:40;;;;;;;12.77;3.97;;;19.30;99.90;;;;;;5018797;28;20217;-75
2021/06/16 08:45:07;;;;;;;12.35;3.95;;;19.30;99.90;;;;;;5035454;28;20224;-75
2021/06/16 08:47:34;;;;;;;11.85;4.45;;;19.80;99.90;;;;;;5038491;28;20238;-76
2021/06/16 08:50:06;;;;;;;11.95;4.07;;;20.50;99.90;;;;;;5038834;28;20202;-75
2021/06/16 08:52:32;;;;;;;15.32;4.35;;;20.20;99.90;;;;;;5036638;28;20232;-75
2021/06/16 08:55:01;;;;;;;11.65;3.95;;;19.90;99.90;;;;;;5019350;28;20681;-75
2021/06/16 08:57:27;;;;;;;9.93;3.90;;;20.10;99.90;;;;;;5039025;28;20189;-75
2021/06/16 08:59:52;;;;;;;14.43;4.32;;;20.50;99.90;;;;;;5021673;28;20262;-75
2021/06/16 09:02:18;;;;;;;12.25;4.10;;;20.30;99.90;;;;;;5022883;28;20239;-75
2021/06/16 09:04:48;;;;;;;12.05;4.40;;;19.60;99.90;;;;;;5020262;28;20233;-75
2021/06/16 09:07:25;;;;;;;10.48;3.95;;;19.70;99.90;;;;;;5038780;28;20269;-75
2021/06/16 09:10:12;;;;;;;8.48;3.38;;;19.60;99.90;;;;;;5035259;28;20214;-76
2021/06/16 09:12:46;;;;;;;17.20;3.97;;;20.20;99.90;;;;;;5040104;28;20232;-74
2021/06/16 09:15:20;;;;;;;10.30;3.80;;;20.60;99.90;;;;;;5018858;28;20316;-75
2021/06/16 09:18:05;;;;;;;13.88;3.75;;;21.20;99.90;;;;;;5036267;28;20200;-75
2021/06/16 09:20:36;;;;;;;14.70;3.65;;;21.70;99.90;;;;;;5038533;28;20204;-75
2021/06/16 09:23:35;;;;;;;8.50;3.47;;;22.10;99.90;;;;;;5038169;28;20189;-75
2021/06/16 09:26:12;;;;;;;11.90;3.85;;;22.30;99.90;;;;;;4998829;28;20295;-74
2021/06/16 09:28:44;;;;;;;10.07;3.90;;;22.10;99.90;;;;;;5037449;28;20194;-75
2021/06/16 09:31:11;;;;;;;13.35;3.78;;;21.90;99.90;;;;;;5036315;28;20201;-77
2021/06/16 09:33:38;;;;;;;10.13;3.65;;;21.70;99.90;;;;;;5038655;28;20198;-77
2021/06/16 09:36:14;;;;;;;13.40;4.05;;;21.90;99.90;;;;;;5037329;28;20232;-76
2021/06/16 09:38:42;;;;;;;8.70;3.45;;;21.50;99.90;;;;;;5020161;28;20209;-76
2021/06/16 09:41:10;;;;;;;10.90;3.78;;;21.40;99.90;;;;;;5035625;28;20220;-75
2021/06/16 09:43:38;;;;;;;15.98;4.03;;;21.70;99.90;;;;;;5035225;28;21022;-76
2021/06/16 09:46:06;;;;;;;10.43;3.33;;;22.50;99.90;;;;;;5040204;28;20204;-76
2021/06/16 09:48:42;;;;;;;10.73;3.38;;;23.30;99.90;;;;;;5041223;28;20640;-76
2021/06/16 09:51:26;;;;;;;8.60;3.63;;;23.40;99.90;;;;;;5035317;28;20209;-76
2021/06/16 09:56:42;;;;;;;14.98;3.40;;;21.60;99.90;;;;;;5044889;28;20269;-75
2021/06/16 09:59:08;;;;;;;11.57;3.70;;;21.50;99.90;;;;;;5042478;28;20445;-76
2021/06/16 10:01:45;;;;;;;9.80;3.97;;;21.50;99.90;;;;;;5040294;28;20197;-77
2021/06/16 10:04:11;;;;;;;8.98;3.75;;;21.70;99.90;;;;;;5035050;28;20209;-76
2021/06/16 10:06:36;;;;;;;8.98;3.47;;;21.80;99.90;;;;;;5021416;28;20235;-76
2021/06/16 10:09:08;;;;;;;10.45;4.07;;;22.30;99.90;;;;;;5039645;28;20198;-77
2021/06/16 10:11:37;;;;;;;17.77;3.60;;;22.60;99.90;;;;;;5032421;28;20224;-75
2021/06/16 10:14:03;;;;;;;8.57;3.20;;;22.80;99.90;;;;;;5036542;28;20200;-76
2021/06/16 10:16:28;;;;;;;7.18;3.08;;;22.90;99.90;;;;;;5042820;28;20187;-75
2021/06/16 10:18:54;;;;;;;8.40;3.08;;;22.60;99.90;;;;;;5036772;28;20209;-77
2021/06/16 10:21:22;;;;;;;10.45;3.30;;;22.50;99.90;;;;;;5042742;28;20660;-75
2021/06/16 10:23:48;;;;;;;8.95;3.28;;;21.80;99.90;;;;;;5027000;28;20201;-75
2021/06/16 10:26:21;;;;;;;10.60;3.72;;;21.80;99.90;;;;;;5041412;28;20724;-76
2021/06/16 10:29:03;;;;;;;9.32;2.97;;;22.10;99.90;;;;;;5036658;28;20312;-76
2021/06/16 10:31:37;;;;;;;13.60;3.58;;;22.50;99.90;;;;;;5040125;28;20219;-75
2021/06/16 10:34:03;;;;;;;6.53;2.72;;;23.20;99.90;;;;;;5027461;28;20641;-76
2021/06/16 10:36:29;;;;;;;8.20;3.13;;;23.70;98.20;;;;;;5013855;28;20202;-76
2021/06/16 10:39:00;;;;;;;11.40;3.22;;;23.30;98.70;;;;;;5041252;28;20530;-76
2021/06/16 10:41:40;;;;;;;10.40;2.78;;;22.90;97.50;;;;;;5033193;28;20200;-76
2021/06/16 10:44:19;;;;;;;11.60;4.50;;;22.80;97.30;;;;;;5028128;28;20726;-76
2021/06/16 10:46:52;;;;;;;8.05;3.03;;;23.30;98.10;;;;;;5013509;28;20202;-76
2021/06/16 10:49:43;;;;;;;8.02;3.17;;;23.10;97.00;;;;;;5033591;28;20748;-76
2021/06/16 10:52:10;;;;;;;9.50;3.63;;;23.00;96.60;;;;;;5020030;28;20224;-75
2021/06/16 10:54:37;;;;;;;12.90;3.47;;;23.20;96.90;;;;;;5045810;28;20200;-76
2021/06/16 10:57:13;;;;;;;10.93;3.08;;;22.80;95.50;;;;;;5045531;28;20201;-76
2021/06/16 10:59:48;;;;;;;12.20;3.55;;;22.80;95.50;;;;;;5021628;28;20192;-75
2021/06/16 11:02:18;;;;;;;9.05;2.83;;;22.90;95.20;;;;;;5039408;28;20747;-76
2021/06/16 11:04:44;;;;;;;7.07;3.15;;;23.70;97.70;;;;;;5037371;28;20198;-76
2021/06/16 11:07:32;;;;;;;7.07;2.85;;;24.30;95.40;;;;;;5038728;28;20221;-77
2021/06/16 11:10:08;;;;;;;5.80;2.70;;;24.30;94.30;;;;;;5034709;28;20201;-76
2021/06/16 11:12:33;;;;;;;8.85;2.75;;;24.30;91.50;;;;;;5037435;28;20524;-76
2021/06/16 11:15:00;;;;;;;9.20;2.35;;;24.20;92.00;;;;;;5037196;28;20781;-76
2021/06/16 11:17:29;;;;;;;6.53;2.50;;;24.20;91.30;;;;;;5040178;28;20251;-75
2021/06/16 11:19:59;;;;;;;6.35;2.60;;;24.00;90.40;;;;;;5037706;28;20201;-75
2021/06/16 11:22:25;;;;;;;5.47;2.38;;;24.10;92.20;;;;;;5019702;28;20201;-75
2021/06/16 11:25:18;;;;;;;8.13;2.63;;;24.10;87.10;;;;;;5021475;28;20634;-75
2021/06/16 11:27:52;;;;;;;5.97;2.50;;;24.20;89.80;;;;;;5018529;28;20197;-76
2021/06/16 11:30:28;;;;;;;6.68;2.38;;;24.30;91.50;;;;;;5035325;28;20849;-75
2021/06/16 11:33:15;;;;;;;10.57;2.47;;;24.10;82.70;;;;;;5037538;28;20204;-76
2021/06/16 11:35:59;;;;;;;5.28;2.47;;;24.50;86.00;;;;;;5042315;28;20205;-75
2021/06/16 11:38:33;;;;;;;5.10;2.47;;;25.10;84.50;;;;;;5025223;28;20194;-76
2021/06/16 11:41:17;;;;;;;4.88;1.90;;;25.20;82.60;;;;;;5024470;28;20698;-75
2021/06/16 11:43:58;;;;;;;3.28;1.58;;;25.00;77.10;;;;;;5024384;28;20190;-75
2021/06/16 11:46:35;;;;;;;9.15;1.70;;;25.20;77.90;;;;;;5040449;28;20208;-75
2021/06/16 11:49:01;;;;;;;4.93;1.70;;;24.50;73.50;;;;;;5045767;28;20262;-76
2021/06/16 11:51:27;;;;;;;3.97;1.90;;;24.10;76.00;;;;;;5044473;28;20406;-76
2021/06/16 11:54:29;;;;;;;3.17;1.70;;;24.40;79.00;;;;;;5041280;28;20220;-75
2021/06/16 11:57:09;;;;;;;4.25;1.98;;;24.60;72.90;;;;;;5032122;28;20202;-76
2021/06/16 11:59:47;;;;;;;4.32;1.70;;;25.30;77.70;;;;;;5024648;28;20207;-76
2021/06/16 12:02:24;;;;;;;3.80;1.63;;;25.00;74.60;;;;;;5046757;28;20288;-76
2021/06/16 12:04:49;;;;;;;4.47;1.90;;;24.80;71.90;;;;;;5017450;28;20520;-76
2021/06/16 12:07:36;;;;;;;4.20;2.00;;;24.00;71.80;;;;;;5022186;28;20229;-76
2021/06/16 12:10:07;;;;;;;2.90;1.60;;;23.90;75.00;;;;;;5039176;28;20235;-75
2021/06/16 12:12:57;;;;;;;3.20;1.60;;;23.80;74.50;;;;;;5038336;28;20194;-76
2021/06/16 12:15:35;;;;;;;6.82;1.55;;;23.90;74.50;;;;;;5025386;28;20201;-76
2021/06/16 12:18:15;;;;;;;5.45;2.00;;;24.40;74.60;;;;;;5035712;28;20288;-76
2021/06/16 12:20:46;;;;;;;8.23;1.85;;;24.70;76.60;;;;;;5021524;28;20236;-75
2021/06/16 12:23:34;;;;;;;4.97;2.22;;;24.10;72.40;;;;;;5040262;28;20193;-75
2021/06/16 12:26:07;;;;;;;5.55;2.22;;;24.10;74.00;;;;;;5036698;28;20206;-75
2021/06/16 12:28:35;;;;;;;7.53;1.83;;;24.30;74.60;;;;;;5043926;28;20291;-75
2021/06/16 12:31:02;;;;;;;6.93;2.17;;;24.40;69.10;;;;;;5043596;28;20653;-75
2021/06/16 12:33:46;;;;;;;3.47;1.95;;;24.40;73.50;;;;;;5049209;28;20202;-75
2021/06/16 12:36:18;;;;;;;4.70;1.80;;;24.30;72.10;;;;;;5046020;28;20240;-75
2021/06/16 12:38:59;;;;;;;4.97;1.77;;;24.30;74.30;;;;;;5039404;28;20675;-76
2021/06/16 12:41:34;;;;;;;3.75;1.90;;;24.40;77.80;;;;;;5038004;28;20267;-75
2021/06/16 12:44:23;;;;;;;3.17;1.73;;;24.60;76.00;;;;;;5035807;28;20636;-75
2021/06/16 12:46:56;;;;;;;4.70;1.73;;;24.80;71.80;;;;;;5042134;28;20208;-75
2021/06/16 12:49:23;;;;;;;6.65;1.67;;;24.60;75.90;;;;;;5040221;28;20213;-75
2021/06/16 12:51:51;;;;;;;3.28;1.30;;;24.00;74.30;;;;;;5043274;28;20313;-75
2021/06/16 12:54:28;;;;;;;6.15;1.50;;;24.40;76.10;;;;;;5024749;28;20238;-75
2021/06/16 12:57:18;;;;;;;4.65;1.67;;;24.50;73.60;;;;;;5041628;28;20197;-74